Time;durP1;ratioP1;P1;durP2;ratioP2;P2;SDS_P1;SDS_P2;PMS_P1;PMS_P2;Temp;Humidity;BMP_temperature;BMP_pressure;BME280_temperature;BME280_humidity;BME280_pressure;Samples;Min_cycle;Max_cycle;Signal;HPM_P1;HPM_P2
2022/09/30 00:06:59;;;;;;;4.25;1.98;;;;;;;15.33;100.00;99122.81;4471030;23;20035;-86
2022/09/30 00:09:37;;;;;;;9.73;3.10;;;;;;;15.12;100.00;99125.13;4969051;29;20074;-86
2022/09/30 00:12:03;;;;;;;6.40;2.38;;;;;;;15.19;100.00;99128.53;4966314;29;20036;-85
2022/09/30 00:14:43;;;;;;;7.00;2.70;;;;;;;15.24;100.00;99129.50;4968505;28;20047;-89
2022/09/30 00:17:18;;;;;;;9.20;2.53;;;;;;;15.31;100.00;99129.41;5531450;23;20054;-85
2022/09/30 00:28:22;;;;;;;5.20;2.57;;;;;;;14.73;100.00;99127.25;5666741;23;20359;-87
2022/09/30 00:36:27;;;;;;;9.70;2.97;;;;;;;14.90;100.00;99160.31;5275527;23;20289;-85
2022/09/30 00:49:41;;;;;;;7.53;3.13;;;;;;;14.62;100.00;99167.97;5659785;23;20067;-85
2022/09/30 01:33:16;;;;;;;7.20;2.90;;;;;;;14.62;100.00;99154.66;5542264;23;20139;-86
2022/09/30 01:36:07;;;;;;;11.27;2.92;;;;;;;14.63;100.00;99153.63;4938100;29;20283;-87
2022/09/30 01:38:44;;;;;;;12.18;3.03;;;;;;;14.63;100.00;99148.28;4955467;29;20058;-87
2022/09/30 01:41:17;;;;;;;7.40;3.47;;;;;;;14.69;100.00;99146.59;4955484;29;20031;-85
2022/09/30 01:43:56;;;;;;;6.03;2.80;;;;;;;14.69;100.00;99151.91;4955620;29;20084;-87
2022/09/30 01:46:36;;;;;;;5.68;2.78;;;;;;;14.78;100.00;99158.59;4938138;29;20034;-86
2022/09/30 01:49:31;;;;;;;6.95;2.65;;;;;;;14.79;100.00;99153.03;4938222;29;20043;-86
2022/09/30 01:52:03;;;;;;;8.25;3.20;;;;;;;14.69;100.00;99147.41;4938238;29;20043;-87
2022/09/30 01:54:53;;;;;;;5.38;2.42;;;;;;;14.74;100.00;99150.22;4938405;29;20066;-87
2022/09/30 01:57:25;;;;;;;7.30;2.78;;;;;;;14.80;100.00;99144.00;4955436;29;20043;-86
2022/09/30 01:59:58;;;;;;;6.63;2.67;;;;;;;14.78;100.00;99143.38;4955235;29;20031;-87
2022/09/30 02:02:27;;;;;;;7.80;2.78;;;;;;;14.75;100.00;99157.19;4955279;29;20043;-86
2022/09/30 02:05:04;;;;;;;5.13;2.50;;;;;;;14.66;100.00;99153.19;4954927;28;20047;-85
2022/09/30 02:07:41;;;;;;;5.53;3.03;;;;;;;14.66;100.00;99166.50;4954923;29;20035;-85
2022/09/30 02:10:43;;;;;;;11.88;2.88;;;;;;;14.65;100.00;99169.41;4955192;29;20063;-86
2022/09/30 02:13:17;;;;;;;7.72;3.33;;;;;;;14.69;100.00;99174.06;4861627;29;20049;-85
2022/09/30 02:15:51;;;;;;;6.75;2.97;;;;;;;14.58;100.00;99177.47;4877281;29;20086;-86
2022/09/30 02:18:20;;;;;;;6.70;2.75;;;;;;;14.60;100.00;99190.56;4876899;29;20049;-88
2022/09/30 02:20:51;;;;;;;5.85;2.92;;;;;;;14.64;100.00;99181.94;4877311;29;20041;-84
2022/09/30 02:23:24;;;;;;;14.38;3.33;;;;;;;14.61;100.00;99187.72;4905320;29;20047;-85
2022/09/30 02:26:30;;;;;;;5.82;3.20;;;;;;;14.63;100.00;99193.63;4954600;29;20034;-85
2022/09/30 02:29:02;;;;;;;5.15;2.88;;;;;;;14.48;100.00;99193.97;4876996;29;20073;-86
2022/09/30 02:31:32;;;;;;;8.27;3.10;;;;;;;14.41;100.00;99198.56;4876828;29;20128;-85
2022/09/30 02:34:05;;;;;;;12.32;3.40;;;;;;;14.49;100.00;99197.44;4876724;29;20143;-85
2022/09/30 02:36:43;;;;;;;7.32;3.42;;;;;;;14.39;100.00;99199.78;4876902;29;20052;-85
2022/09/30 02:39:28;;;;;;;8.50;3.60;;;;;;;14.47;100.00;99205.69;4863398;29;20041;-86
2022/09/30 02:42:02;;;;;;;10.65;3.40;;;;;;;14.73;100.00;99206.44;4954363;29;20505;-86
2022/09/30 02:44:28;;;;;;;9.95;3.65;;;;;;;14.90;100.00;99205.66;4955258;29;20035;-85
2022/09/30 02:47:25;;;;;;;9.43;3.90;;;;;;;14.93;100.00;99217.72;4966511;29;20043;-86
2022/09/30 02:50:01;;;;;;;7.22;3.97;;;;;;;14.77;100.00;99223.66;4956271;29;20040;-86
2022/09/30 02:52:36;;;;;;;7.55;3.28;;;;;;;14.93;100.00;99215.88;4954711;29;20103;-85
2022/09/30 02:55:30;;;;;;;13.52;4.20;;;;;;;14.90;100.00;99208.31;4954558;29;20035;-85
2022/09/30 02:58:04;;;;;;;7.53;3.58;;;;;;;14.78;100.00;99214.63;4954614;29;20079;-86
2022/09/30 03:00:30;;;;;;;7.50;4.07;;;;;;;14.67;100.00;99202.81;4954883;29;20548;-84
2022/09/30 03:03:02;;;;;;;13.35;3.95;;;;;;;14.61;100.00;99206.38;4954724;29;20035;-84
2022/09/30 03:05:28;;;;;;;12.68;3.80;;;;;;;14.65;100.00;99209.41;4939680;29;20039;-85
2022/09/30 03:07:54;;;;;;;8.38;2.90;;;;;;;14.55;100.00;99204.56;4938019;29;20457;-84
2022/09/30 03:10:20;;;;;;;11.30;3.50;;;;;;;14.34;100.00;99196.97;4954484;29;20050;-87
2022/09/30 03:13:03;;;;;;;9.23;3.60;;;;;;;14.34;100.00;99197.81;4954979;29;20118;-85
2022/09/30 03:15:51;;;;;;;11.13;3.10;;;;;;;14.29;100.00;99202.09;4954535;29;20058;-85
2022/09/30 03:18:39;;;;;;;20.02;3.92;;;;;;;14.62;100.00;99197.31;4957154;28;20043;-87
2022/09/30 03:21:37;;;;;;;10.48;3.60;;;;;;;14.60;100.00;99199.41;4958325;29;20039;-87
2022/09/30 03:24:24;;;;;;;9.60;3.80;;;;;;;14.73;100.00;99207.25;4963562;29;20523;-86
2022/09/30 03:27:09;;;;;;;10.80;3.53;;;;;;;14.45;100.00;99218.38;4964586;29;20063;-86
2022/09/30 03:29:47;;;;;;;9.57;4.15;;;;;;;14.57;100.00;99207.84;4975936;29;20043;-86
2022/09/30 03:32:25;;;;;;;19.20;3.95;;;;;;;14.65;100.00;99215.53;4945594;29;20071;-86
2022/09/30 03:34:58;;;;;;;12.65;3.60;;;;;;;14.71;100.00;99217.34;4978726;28;20050;-86
2022/09/30 03:37:27;;;;;;;10.68;3.80;;;;;;;14.73;100.00;99212.59;4942033;29;20453;-85
2022/09/30 03:40:21;;;;;;;12.63;3.42;;;;;;;14.82;100.00;99219.28;4958694;29;20031;-86
2022/09/30 03:42:59;;;;;;;9.35;3.42;;;;;;;14.76;100.00;99216.66;4958270;29;20028;-87
2022/09/30 03:45:30;;;;;;;7.97;3.03;;;;;;;14.86;100.00;99222.31;4958242;29;20039;-86
2022/09/30 03:48:00;;;;;;;10.82;2.80;;;;;;;14.77;100.00;99229.81;4957736;29;20416;-84
2022/09/30 03:50:28;;;;;;;9.45;1.98;;;;;;;15.11;100.00;99224.94;4958000;29;20039;-85
2022/09/30 03:52:54;;;;;;;9.30;2.08;;;;;;;15.19;100.00;99222.75;4957614;29;20036;-85
2022/09/30 03:55:22;;;;;;;10.27;2.47;;;;;;;15.32;100.00;99227.94;4957456;29;20043;-86
2022/09/30 03:57:48;;;;;;;6.57;1.90;;;;;;;15.15;100.00;99220.75;4957376;29;20027;-87
2022/09/30 04:00:14;;;;;;;8.70;2.08;;;;;;;15.25;100.00;99229.88;4957627;29;20039;-86
2022/09/30 04:02:40;;;;;;;10.68;2.35;;;;;;;15.10;100.00;99220.63;4957222;29;20035;-85
2022/09/30 04:05:07;;;;;;;6.75;1.98;;;;;;;15.11;100.00;99222.25;4940325;29;20047;-86
2022/09/30 04:07:33;;;;;;;8.95;2.00;;;;;;;15.20;100.00;99228.91;4958800;29;20039;-86
2022/09/30 04:09:59;;;;;;;5.80;2.38;;;;;;;15.10;100.00;99236.63;4966465;29;20041;-84
2022/09/30 04:12:25;;;;;;;10.93;2.17;;;;;;;15.11;100.00;99243.59;4941344;29;20134;-86
2022/09/30 04:14:50;;;;;;;7.35;1.92;;;;;;;14.92;100.00;99248.09;4957133;29;20126;-85
2022/09/30 04:17:16;;;;;;;6.72;1.92;;;;;;;15.10;100.00;99240.13;4957473;29;20067;-85
2022/09/30 04:19:43;;;;;;;4.68;1.90;;;;;;;15.00;100.00;99245.97;4957084;29;20091;-85
2022/09/30 04:22:09;;;;;;;6.50;1.77;;;;;;;15.13;100.00;99254.88;4939594;29;20027;-86
2022/09/30 04:24:35;;;;;;;10.30;1.80;;;;;;;15.24;100.00;99257.63;4956801;29;20393;-85
2022/09/30 04:27:02;;;;;;;13.80;2.25;;;;;;;15.13;100.00;99260.19;4956672;29;20031;-85
2022/09/30 04:29:27;;;;;;;7.03;2.47;;;;;;;15.14;100.00;99261.84;4960506;28;20043;-84
2022/09/30 04:31:53;;;;;;;6.05;1.67;;;;;;;15.19;100.00;99256.63;4956502;29;20043;-84
2022/09/30 04:34:19;;;;;;;9.70;2.40;;;;;;;15.22;100.00;99251.66;4956465;29;20050;-85
2022/09/30 04:36:44;;;;;;;8.13;2.63;;;;;;;15.31;100.00;99255.66;4956827;29;20027;-86
2022/09/30 04:39:10;;;;;;;10.73;2.92;;;;;;;15.33;100.00;99258.94;4956382;29;20054;-83
2022/09/30 04:41:37;;;;;;;12.45;2.95;;;;;;;15.26;100.00;99257.38;4956676;29;20039;-83
2022/09/30 04:44:05;;;;;;;8.05;3.15;;;;;;;14.98;100.00;99274.72;4956837;29;20520;-83
2022/09/30 04:46:35;;;;;;;5.50;2.50;;;;;;;15.00;100.00;99272.66;4956340;29;20074;-82
2022/09/30 04:49:03;;;;;;;11.60;3.63;;;;;;;14.84;100.00;99281.22;4956416;29;20046;-87
2022/09/30 04:51:28;;;;;;;10.25;4.57;;;;;;;14.64;100.00;99288.59;4956741;29;20090;-87
2022/09/30 04:53:54;;;;;;;7.60;4.05;;;;;;;14.51;100.00;99286.03;4939078;29;20110;-87
2022/09/30 04:56:25;;;;;;;9.55;4.03;;;;;;;14.47;100.00;99282.16;4954123;28;20050;-84
2022/09/30 04:58:53;;;;;;;14.38;4.72;;;;;;;14.43;100.00;99281.78;4935197;29;20042;-85
2022/09/30 05:01:19;;;;;;;12.75;4.30;;;;;;;14.47;100.00;99282.16;4955280;29;20378;-86
2022/09/30 05:03:46;;;;;;;11.57;4.65;;;;;;;14.26;100.00;99285.16;4937670;29;20074;-86
2022/09/30 05:06:13;;;;;;;12.25;4.47;;;;;;;13.94;100.00;99287.84;4955665;29;20114;-86
2022/09/30 05:08:39;;;;;;;12.63;4.00;;;;;;;13.81;100.00;99273.75;4955968;29;20058;-86
2022/09/30 05:11:10;;;;;;;12.75;4.35;;;;;;;13.88;100.00;99283.34;4955908;29;20020;-85
2022/09/30 05:13:38;;;;;;;18.08;5.10;;;;;;;13.92;100.00;99297.03;4955624;29;20508;-86
2022/09/30 05:16:05;;;;;;;18.35;6.35;;;;;;;14.01;100.00;99308.28;4958701;29;20031;-86
2022/09/30 05:18:33;;;;;;;21.30;12.98;;;;;;;13.91;100.00;99319.41;4960745;29;20115;-88
2022/09/30 05:20:59;;;;;;;23.80;7.43;;;;;;;13.89;100.00;99327.59;4956432;29;20047;-89
2022/09/30 05:23:27;;;;;;;13.80;8.00;;;;;;;14.19;100.00;99337.66;4956987;29;20035;-89
2022/09/30 05:25:53;;;;;;;21.77;9.70;;;;;;;14.13;100.00;99338.53;4940555;29;20071;-88
2022/09/30 05:28:19;;;;;;;19.20;10.68;;;;;;;13.97;100.00;99342.50;4956230;29;20035;-89
2022/09/30 05:30:46;;;;;;;16.38;10.60;;;;;;;13.95;100.00;99345.38;4963850;29;20046;-88
2022/09/30 05:33:12;;;;;;;20.25;11.43;;;;;;;13.97;100.00;99346.00;4970237;29;20046;-89
2022/09/30 05:35:40;;;;;;;19.60;10.65;;;;;;;13.96;100.00;99363.00;4955517;29;20122;-89
2022/09/30 05:38:06;;;;;;;24.67;11.27;;;;;;;13.88;100.00;99359.78;4923174;29;20373;-88
2022/09/30 05:40:32;;;;;;;19.50;11.15;;;;;;;14.01;100.00;99364.22;4955012;28;20190;-87
2022/09/30 05:42:59;;;;;;;18.15;11.60;;;;;;;13.80;100.00;99370.66;4948648;29;20528;-87
2022/09/30 05:45:25;;;;;;;18.05;11.02;;;;;;;13.65;100.00;99378.91;4928089;29;20135;-87
2022/09/30 05:47:54;;;;;;;20.38;10.68;;;;;;;13.64;100.00;99382.59;4928933;29;20405;-88
2022/09/30 05:50:22;;;;;;;23.08;11.57;;;;;;;13.87;100.00;99382.94;4931859;29;20027;-87
2022/09/30 05:52:48;;;;;;;21.45;11.63;;;;;;;13.70;100.00;99392.41;4937328;29;20031;-89
2022/09/30 05:55:15;;;;;;;22.33;11.57;;;;;;;13.58;100.00;99396.75;4955053;29;20497;-88
2022/09/30 05:57:41;;;;;;;21.02;12.15;;;;;;;13.81;100.00;99394.44;4955418;29;20046;-88
2022/09/30 06:00:08;;;;;;;20.52;12.38;;;;;;;13.63;100.00;99394.25;4955601;29;20023;-88
2022/09/30 06:02:37;;;;;;;19.45;13.15;;;;;;;13.56;100.00;99396.13;4955594;29;20043;-86
2022/09/30 06:05:10;;;;;;;17.88;12.18;;;;;;;13.61;100.00;99406.97;4938096;29;20046;-89
2022/09/30 06:07:36;;;;;;;22.08;12.70;;;;;;;13.85;100.00;99419.59;4938361;29;20042;-87
2022/09/30 06:10:09;;;;;;;19.92;11.77;;;;;;;13.99;100.00;99412.38;4958341;29;20027;-87
2022/09/30 06:12:36;;;;;;;19.60;12.25;;;;;;;13.71;100.00;99415.34;4958966;29;20039;-89
2022/09/30 06:15:02;;;;;;;32.13;13.95;;;;;;;13.55;100.00;99437.09;4940820;29;20053;-86
2022/09/30 06:17:28;;;;;;;30.70;13.00;;;;;;;13.53;100.00;99431.16;4941680;29;20054;-88
2022/09/30 06:19:53;;;;;;;20.23;12.98;;;;;;;13.72;100.00;99424.16;4957639;29;20469;-88
2022/09/30 06:22:19;;;;;;;22.70;13.13;;;;;;;13.82;100.00;99436.00;4956163;29;20038;-87
2022/09/30 06:24:45;;;;;;;17.35;12.02;;;;;;;13.74;100.00;99438.06;4955786;29;20378;-87
2022/09/30 06:27:11;;;;;;;20.60;12.45;;;;;;;13.82;100.00;99433.31;4955062;29;20031;-88
2022/09/30 06:29:37;;;;;;;22.52;12.43;;;;;;;13.88;100.00;99445.84;4955119;29;20075;-87
2022/09/30 06:32:03;;;;;;;19.20;11.27;;;;;;;14.01;100.00;99463.63;4955100;29;20401;-90
2022/09/30 06:34:28;;;;;;;19.35;11.27;;;;;;;13.96;100.00;99466.91;4955278;29;20481;-86
2022/09/30 06:36:54;;;;;;;16.85;11.80;;;;;;;13.93;100.00;99477.16;4955962;29;20087;-88
2022/09/30 06:39:19;;;;;;;19.83;11.35;;;;;;;13.94;100.00;99481.47;4955393;29;20043;-87
2022/09/30 06:41:45;;;;;;;19.58;11.43;;;;;;;13.99;100.00;99481.63;4938336;29;20090;-87
2022/09/30 06:44:23;;;;;;;22.77;12.48;;;;;;;13.83;100.00;99482.91;4924558;29;20035;-90
2022/09/30 06:46:48;;;;;;;21.05;11.95;;;;;;;13.86;100.00;99484.34;4956078;29;20035;-88
2022/09/30 06:49:14;;;;;;;20.85;11.25;;;;;;;13.87;100.00;99478.81;4921936;29;20039;-89
2022/09/30 06:51:39;;;;;;;18.60;12.25;;;;;;;13.97;100.00;99479.19;4922843;29;20046;-87
2022/09/30 06:54:05;;;;;;;18.40;11.75;;;;;;;13.87;100.00;99476.16;4951718;29;20035;-89
2022/09/30 06:56:30;;;;;;;28.85;12.50;;;;;;;13.95;100.00;99478.56;4954109;29;20035;-86
2022/09/30 06:58:56;;;;;;;29.60;12.13;;;;;;;13.93;100.00;99483.28;4942100;29;20536;-87
2022/09/30 07:01:23;;;;;;;30.13;11.48;;;;;;;14.01;100.00;99494.75;4959487;29;20086;-85
2022/09/30 07:03:55;;;;;;;26.92;11.70;;;;;;;14.10;100.00;99498.81;4958364;29;20151;-85
2022/09/30 07:06:20;;;;;;;34.58;12.55;;;;;;;14.16;100.00;99500.66;4958636;29;20054;-85
2022/09/30 07:08:46;;;;;;;20.08;10.98;;;;;;;14.26;100.00;99504.50;4958456;29;20035;-86
2022/09/30 07:11:15;;;;;;;21.17;11.48;;;;;;;14.14;100.00;99505.38;4958041;29;20122;-87
2022/09/30 07:13:42;;;;;;;24.60;12.45;;;;;;;14.17;100.00;99504.97;4958183;29;20039;-88
2022/09/30 07:16:10;;;;;;;18.65;11.48;;;;;;;14.12;100.00;99510.13;4958329;29;20033;-85
2022/09/30 07:18:37;;;;;;;21.70;11.88;;;;;;;14.05;100.00;99522.63;4958236;29;20043;-85
2022/09/30 07:21:04;;;;;;;22.10;11.15;;;;;;;14.08;100.00;99516.88;4958209;29;20027;-87
2022/09/30 07:23:30;;;;;;;17.77;12.27;;;;;;;14.18;100.00;99515.41;4958047;29;20031;-86
2022/09/30 07:26:01;;;;;;;18.45;11.65;;;;;;;14.11;100.00;99522.59;4958207;29;20031;-85
2022/09/30 07:28:30;;;;;;;21.92;12.88;;;;;;;14.01;100.00;99524.88;4957841;29;20035;-87
2022/09/30 07:30:58;;;;;;;20.70;13.07;;;;;;;14.20;100.00;99526.69;4958153;29;20036;-85
2022/09/30 07:33:27;;;;;;;21.98;12.00;;;;;;;14.10;100.00;99525.47;4957766;29;20101;-86
2022/09/30 07:35:54;;;;;;;29.15;12.90;;;;;;;14.05;100.00;99546.59;4957974;29;20122;-87
2022/09/30 07:38:22;;;;;;;23.90;12.68;;;;;;;13.96;100.00;99556.66;4957765;29;20114;-87
2022/09/30 07:40:59;;;;;;;20.83;12.55;;;;;;;14.11;100.00;99562.56;4941042;29;20043;-88
2022/09/30 07:43:33;;;;;;;25.15;12.55;;;;;;;14.12;100.00;99566.06;4958627;29;20035;-89
2022/09/30 07:46:04;;;;;;;17.80;11.88;;;;;;;13.94;100.00;99569.38;4957909;29;20039;-85
2022/09/30 07:49:05;;;;;;;22.90;11.98;;;;;;;14.14;100.00;99575.47;4961839;29;20123;-85
2022/09/30 07:51:22;;;;;;;20.35;11.57;;;;;;;14.23;100.00;99578.72;4963081;29;20405;-87
2022/09/30 07:53:56;;;;;;;24.10;11.95;;;;;;;14.14;100.00;99585.31;4970281;29;20047;-86
2022/09/30 07:56:23;;;;;;;20.15;11.20;;;;;;;14.33;100.00;99579.13;4970127;28;20063;-86
2022/09/30 07:58:53;;;;;;;20.70;10.93;;;;;;;14.57;100.00;99589.13;4967948;29;20031;-86
2022/09/30 08:01:18;;;;;;;19.35;11.43;;;;;;;14.35;100.00;99604.56;4949241;29;20043;-85
2022/09/30 08:03:43;;;;;;;17.95;10.35;;;;;;;14.43;100.00;99608.84;4939948;29;20552;-85
2022/09/30 08:06:13;;;;;;;20.90;11.48;;;;;;;14.37;100.00;99612.38;4957448;29;20573;-85
2022/09/30 08:08:39;;;;;;;22.77;11.65;;;;;;;14.34;100.00;99612.78;4957552;29;20035;-84
2022/09/30 08:11:05;;;;;;;24.40;13.52;;;;;;;14.27;100.00;99638.59;4957337;29;20126;-86
2022/09/30 08:13:31;;;;;;;24.40;14.63;;;;;;;14.18;100.00;99645.19;4940091;29;20453;-86
2022/09/30 08:15:56;;;;;;;30.13;14.57;;;;;;;14.10;100.00;99654.19;4959607;29;20058;-87
2022/09/30 08:18:22;;;;;;;30.55;14.90;;;;;;;14.03;100.00;99664.03;4968344;29;20050;-84
2022/09/30 08:20:48;;;;;;;24.50;13.60;;;;;;;13.97;100.00;99679.00;4960910;29;20035;-85
2022/09/30 08:23:14;;;;;;;24.17;14.10;;;;;;;13.95;100.00;99680.22;4957285;29;20043;-85
2022/09/30 08:25:40;;;;;;;22.80;13.88;;;;;;;13.92;100.00;99676.09;4939978;29;20386;-86
2022/09/30 08:28:05;;;;;;;22.02;13.30;;;;;;;14.07;100.00;99675.09;4957436;29;20082;-87
2022/09/30 08:30:34;;;;;;;20.42;13.48;;;;;;;14.24;100.00;99679.00;4956808;29;20392;-87
2022/09/30 08:33:00;;;;;;;19.98;12.25;;;;;;;14.22;100.00;99683.72;4957069;29;20141;-87
2022/09/30 08:35:26;;;;;;;19.30;12.82;;;;;;;14.41;100.00;99680.25;4940089;29;20079;-86
2022/09/30 08:37:52;;;;;;;22.98;12.88;;;;;;;14.31;100.00;99687.81;4957167;29;20126;-86
2022/09/30 08:40:25;;;;;;;23.42;12.75;;;;;;;14.47;100.00;99695.41;4956726;29;20094;-87
2022/09/30 08:43:13;;;;;;;21.52;11.80;;;;;;;14.31;100.00;99695.81;4939890;29;20043;-86
2022/09/30 08:45:39;;;;;;;20.40;12.90;;;;;;;14.17;100.00;99697.66;4939943;29;20035;-86
2022/09/30 08:48:14;;;;;;;27.65;14.55;;;;;;;14.08;100.00;99698.06;4956946;29;20445;-88
2022/09/30 08:50:54;;;;;;;23.02;14.13;;;;;;;14.10;100.00;99712.81;4957805;29;20035;-86
2022/09/30 08:53:26;;;;;;;21.88;14.02;;;;;;;14.07;100.00;99707.91;4956860;29;20074;-87
2022/09/30 08:55:53;;;;;;;;;;;;;;;14.11;100.00;99717.13;4940004;29;20043;-88
2022/09/30 08:58:27;;;;;;;23.98;14.68;;;;;;;14.10;100.00;99714.66;4956769;29;19934;-85
2022/09/30 09:00:58;;;;;;;21.10;14.07;;;;;;;14.08;100.00;99720.19;4956658;29;20064;-88
2022/09/30 09:03:29;;;;;;;25.30;15.95;;;;;;;13.94;100.00;99714.03;4957229;29;20090;-88
2022/09/30 09:06:03;;;;;;;23.65;15.82;;;;;;;14.06;100.00;99718.75;4940023;29;20170;-88
2022/09/30 09:08:54;;;;;;;22.05;15.27;;;;;;;14.20;100.00;99709.72;4956614;29;20039;-86
2022/09/30 09:11:43;;;;;;;24.35;14.73;;;;;;;14.39;100.00;99711.59;4939013;29;20374;-86
2022/09/30 09:14:49;;;;;;;27.15;13.43;;;;;;;14.32;100.00;99706.25;4955992;28;20038;-85
2022/09/30 09:17:27;;;;;;;28.08;15.30;;;;;;;14.30;100.00;99712.81;4955282;29;20071;-87
2022/09/30 09:20:02;;;;;;;29.25;15.82;;;;;;;14.19;100.00;99724.06;4954897;29;20043;-84
2022/09/30 09:22:30;;;;;;;31.38;17.58;;;;;;;14.15;100.00;99725.53;4954799;29;20500;-86
2022/09/30 09:24:57;;;;;;;23.50;14.75;;;;;;;14.25;100.00;99720.63;4955548;29;20504;-87
2022/09/30 09:27:45;;;;;;;28.35;15.63;;;;;;;14.30;100.00;99707.47;4957169;29;20034;-88
2022/09/30 09:30:15;;;;;;;26.77;13.90;;;;;;;14.42;100.00;99711.19;4956132;29;20043;-87
2022/09/30 09:32:44;;;;;;;24.63;14.63;;;;;;;14.32;100.00;99705.41;4955094;29;20130;-89
2022/09/30 09:35:35;;;;;;;27.77;14.77;;;;;;;14.28;100.00;99705.03;4955477;29;20046;-87
2022/09/30 09:38:24;;;;;;;21.10;14.45;;;;;;;14.32;100.00;99705.41;4955988;29;20057;-88
2022/09/30 09:41:20;;;;;;;39.03;15.18;;;;;;;14.38;100.00;99709.97;4947719;29;20081;-85
2022/09/30 09:43:52;;;;;;;41.35;15.95;;;;;;;14.46;100.00;99712.41;4957468;29;20063;-87
2022/09/30 09:46:32;;;;;;;31.80;15.32;;;;;;;14.65;100.00;99716.91;4955408;29;20496;-87
2022/09/30 09:49:12;;;;;;;36.03;14.27;;;;;;;14.66;100.00;99723.88;4922367;29;20050;-87
2022/09/30 09:51:47;;;;;;;23.60;14.07;;;;;;;14.65;100.00;99721.44;4938457;29;20038;-87
2022/09/30 09:54:17;;;;;;;25.80;13.90;;;;;;;14.65;100.00;99710.78;4955445;29;20039;-84
2022/09/30 09:56:43;;;;;;;19.13;12.70;;;;;;;14.84;100.00;99716.06;4955792;29;20057;-87
2022/09/30 09:59:12;;;;;;;18.38;12.65;;;;;;;14.88;100.00;99717.25;4955642;29;20469;-87
2022/09/30 10:01:41;;;;;;;22.80;13.77;;;;;;;14.71;100.00;99734.75;4938137;29;20397;-86
2022/09/30 10:04:23;;;;;;;20.60;12.98;;;;;;;14.87;100.00;99754.84;4955366;29;20082;-85
2022/09/30 10:07:13;;;;;;;25.25;12.98;;;;;;;14.75;100.00;99759.97;4938689;29;20090;-85
2022/09/30 10:09:41;;;;;;;19.17;13.00;;;;;;;14.58;100.00;99758.78;4955635;29;20031;-83
2022/09/30 10:12:07;;;;;;;23.70;13.55;;;;;;;14.66;100.00;99765.72;4937913;29;20118;-87
2022/09/30 10:14:36;;;;;;;22.88;12.82;;;;;;;14.68;100.00;99769.81;4954918;29;20126;-88
2022/09/30 10:17:03;;;;;;;22.38;13.50;;;;;;;14.57;100.00;99770.47;4955187;29;20039;-86
2022/09/30 10:19:31;;;;;;;21.48;13.50;;;;;;;14.59;100.00;99771.06;4954948;29;20510;-85
2022/09/30 10:22:10;;;;;;;22.33;14.07;;;;;;;14.46;100.00;99784.41;4955067;29;20417;-85
2022/09/30 10:24:38;;;;;;;23.50;14.48;;;;;;;14.52;100.00;99770.25;4955288;29;20031;-86
2022/09/30 10:27:24;;;;;;;22.52;14.77;;;;;;;14.46;100.00;99766.56;4960872;28;20086;-86
2022/09/30 10:29:49;;;;;;;24.65;15.20;;;;;;;14.57;100.00;99777.63;4962143;29;20501;-86
2022/09/30 10:32:15;;;;;;;20.45;14.45;;;;;;;14.77;100.00;99768.59;4961007;29;20054;-87
2022/09/30 10:34:43;;;;;;;22.08;13.98;;;;;;;14.84;100.00;99763.25;4961180;29;20037;-86
2022/09/30 10:37:21;;;;;;;20.80;13.77;;;;;;;14.71;100.00;99773.94;4961255;28;20039;-87
2022/09/30 10:39:57;;;;;;;23.98;15.02;;;;;;;14.63;100.00;99787.47;4961025;29;20465;-85
2022/09/30 10:42:26;;;;;;;21.85;14.77;;;;;;;14.51;100.00;99787.28;4961223;28;20045;-88
2022/09/30 10:44:56;;;;;;;31.23;15.68;;;;;;;14.45;100.00;99785.41;4961457;28;20053;-85
2022/09/30 10:47:25;;;;;;;23.67;14.70;;;;;;;14.53;100.00;99789.72;4960987;28;20106;-85
2022/09/30 10:49:50;;;;;;;23.63;13.70;;;;;;;14.47;100.00;99799.38;4961098;29;20027;-85
2022/09/30 10:52:27;;;;;;;20.92;13.65;;;;;;;14.40;100.00;99801.22;4961043;28;20428;-86
2022/09/30 10:55:06;;;;;;;24.55;15.70;;;;;;;14.32;100.00;99796.03;4961352;29;20122;-87
2022/09/30 10:57:36;;;;;;;27.27;16.73;;;;;;;14.22;100.00;99790.31;4961313;28;20039;-87
2022/09/30 11:00:07;;;;;;;25.08;16.85;;;;;;;14.24;100.00;99804.25;4961523;28;20090;-87
2022/09/30 11:02:49;;;;;;;25.70;17.10;;;;;;;14.38;100.00;99804.06;4966038;29;20094;-85
2022/09/30 11:05:24;;;;;;;25.95;16.75;;;;;;;14.27;100.00;99810.00;4972307;29;20122;-86
2022/09/30 11:08:11;;;;;;;30.33;18.35;;;;;;;14.26;100.00;99810.19;4961165;28;20420;-86
2022/09/30 11:10:58;;;;;;;27.85;18.73;;;;;;;14.32;100.00;99809.38;4944050;29;20095;-87
2022/09/30 11:13:47;;;;;;;28.23;19.13;;;;;;;14.32;100.00;99817.38;4961157;29;20035;-85
2022/09/30 11:17:04;;;;;;;33.90;22.00;;;;;;;14.35;100.00;99822.34;4961759;29;20046;-86
2022/09/30 11:19:42;;;;;;;39.05;24.52;;;;;;;14.28;100.00;99826.81;4917832;29;20043;-87
2022/09/30 11:22:10;;;;;;;33.45;21.52;;;;;;;14.21;100.00;99831.31;4961126;29;20481;-88
2022/09/30 11:24:47;;;;;;;32.95;22.63;;;;;;;14.24;100.00;99831.72;4944018;29;20552;-87
2022/09/30 11:27:37;;;;;;;34.28;21.45;;;;;;;14.30;100.00;99846.09;4961618;29;20087;-86
2022/09/30 11:30:09;;;;;;;32.78;22.60;;;;;;;14.33;100.00;99832.34;4962076;28;20042;-86
2022/09/30 11:33:12;;;;;;;43.60;24.17;;;;;;;14.25;100.00;99843.22;4966084;29;20169;-89
2022/09/30 11:35:56;;;;;;;29.85;21.50;;;;;;;14.26;100.00;99842.19;4963919;28;20036;-89
2022/09/30 11:38:27;;;;;;;33.38;22.08;;;;;;;14.27;100.00;99838.50;4962494;28;20035;-87
2022/09/30 11:41:08;;;;;;;29.38;21.40;;;;;;;14.27;100.00;99841.16;4959480;29;20071;-87
2022/09/30 11:43:57;;;;;;;29.70;20.23;;;;;;;14.27;100.00;99842.00;4940937;29;20495;-88
2022/09/30 11:46:30;;;;;;;32.83;20.15;;;;;;;14.21;100.00;99848.13;4922902;29;20050;-86
2022/09/30 11:49:18;;;;;;;29.35;20.13;;;;;;;14.24;100.00;99841.56;4957690;29;20043;-83
2022/09/30 11:52:14;;;;;;;30.50;22.40;;;;;;;14.26;100.00;99842.19;4957600;29;20429;-88
2022/09/30 11:54:50;;;;;;;31.13;21.25;;;;;;;14.36;100.00;99842.63;4940384;29;20539;-85
2022/09/30 11:57:25;;;;;;;35.10;21.88;;;;;;;14.30;100.00;99843.41;4957834;29;20101;-89
2022/09/30 12:00:07;;;;;;;33.65;21.35;;;;;;;14.29;100.00;99845.25;4957429;29;20488;-88
2022/09/30 12:02:43;;;;;;;32.20;21.38;;;;;;;14.31;100.00;99843.22;4958049;29;20039;-86
2022/09/30 12:05:47;;;;;;;27.88;19.40;;;;;;;14.25;100.00;99853.88;4940879;29;20058;-87
2022/09/30 12:08:29;;;;;;;27.33;18.02;;;;;;;14.42;100.00;99857.81;4864537;29;20081;-85
2022/09/30 12:11:01;;;;;;;27.17;18.08;;;;;;;14.34;100.00;99858.84;4880167;29;20037;-87
2022/09/30 12:13:46;;;;;;;30.10;18.58;;;;;;;14.29;100.00;99863.91;4884415;29;20076;-86
2022/09/30 12:16:22;;;;;;;30.17;19.13;;;;;;;14.28;100.00;99859.63;4886382;29;20381;-83
2022/09/30 12:18:56;;;;;;;29.33;19.95;;;;;;;14.30;100.00;99862.06;4929369;29;20074;-87
2022/09/30 12:21:57;;;;;;;30.65;20.25;;;;;;;14.32;100.00;99862.69;4967758;29;20167;-88
2022/09/30 12:24:44;;;;;;;35.30;21.35;;;;;;;14.31;100.00;99847.72;4938090;29;20066;-89
2022/09/30 12:27:39;;;;;;;32.83;21.17;;;;;;;14.35;100.00;99865.00;4969280;29;20161;-83
2022/09/30 12:30:16;;;;;;;34.50;21.90;;;;;;;14.39;100.00;99866.22;4959378;29;20031;-85
2022/09/30 12:32:41;;;;;;;36.65;21.08;;;;;;;14.40;100.00;99863.38;4947401;29;20568;-88
2022/09/30 12:35:49;;;;;;;32.70;21.92;;;;;;;14.42;100.00;99865.81;4935033;29;20141;-87
2022/09/30 12:38:34;;;;;;;29.35;20.15;;;;;;;14.44;100.00;99866.44;4894893;29;20473;-86
2022/09/30 12:41:12;;;;;;;34.00;21.17;;;;;;;14.46;100.00;99877.72;4956617;29;20123;-86
2022/09/30 12:43:53;;;;;;;31.75;20.15;;;;;;;14.49;100.00;99882.66;4955710;29;20140;-88
2022/09/30 12:46:37;;;;;;;27.42;18.63;;;;;;;14.42;100.00;99879.13;4954451;29;20043;-88
2022/09/30 12:49:13;;;;;;;20.35;14.50;;;;;;;14.43;100.00;99873.63;4938530;29;20046;-87
2022/09/30 12:51:46;;;;;;;23.27;12.73;;;;;;;14.40;100.00;99873.19;4938975;29;20481;-87
2022/09/30 12:54:22;;;;;;;21.10;12.75;;;;;;;14.40;100.00;99883.88;4938722;29;20055;-86